createdAt,value
2019-01-16T00:00:42.927Z,11.33
2019-01-16T00:03:29.210Z,12.57
2019-01-16T00:06:22.800Z,10.97
2019-01-16T00:09:16.758Z,12.87
2019-01-16T00:12:10.209Z,12.73
2019-01-16T00:15:07.254Z,15.23
2019-01-16T00:18:16.857Z,13.27
2019-01-16T00:20:55.007Z,10.90
2019-01-16T00:23:55.142Z,10.17
2019-01-16T00:26:53.431Z,11.10
2019-01-16T00:29:39.992Z,10.70
2019-01-16T00:32:18.431Z,11.13
2019-01-16T00:35:12.170Z,12.30
2019-01-16T00:38:12.164Z,10.53
2019-01-16T00:41:00.075Z,10.70
2019-01-16T00:43:53.250Z,10.60
2019-01-16T00:46:43.768Z,10.83
2019-01-16T00:49:41.440Z,9.83
2019-01-16T00:52:38.428Z,9.90
2019-01-16T00:55:29.667Z,11.20
2019-01-16T00:58:17.572Z,11.67
2019-01-16T01:01:01.603Z,10.10
2019-01-16T01:03:41.358Z,10.30
2019-01-16T01:06:34.898Z,9.57
2019-01-16T01:09:29.589Z,10.27
2019-01-16T01:12:32.931Z,10.23
2019-01-16T01:15:19.742Z,10.87
2019-01-16T01:18:05.983Z,10.13
2019-01-16T01:20:50.201Z,10.23
2019-01-16T01:23:40.896Z,10.83
2019-01-16T01:26:27.623Z,10.90
2019-01-16T01:29:16.280Z,11.07
2019-01-16T01:32:07.364Z,10.83
2019-01-16T01:34:44.847Z,11.40
2019-01-16T01:37:48.086Z,11.20
2019-01-16T01:40:42.093Z,10.93
2019-01-16T01:43:31.186Z,11.53
2019-01-16T01:46:28.028Z,10.80
2019-01-16T01:49:25.468Z,10.43
2019-01-16T01:52:25.066Z,11.10
2019-01-16T01:55:31.258Z,10.27
2019-01-16T01:58:19.023Z,9.83
2019-01-16T02:01:19.060Z,10.87
2019-01-16T02:04:13.156Z,10.20
2019-01-16T02:07:09.907Z,10.93
2019-01-16T02:09:56.240Z,11.33
2019-01-16T02:12:35.650Z,10.63
2019-01-16T02:15:17.338Z,10.93
2019-01-16T02:18:22.114Z,11.07
2019-01-16T02:21:08.641Z,11.20
2019-01-16T02:23:56.366Z,11.60
2019-01-16T02:26:44.248Z,12.53
2019-01-16T02:29:31.963Z,11.50
2019-01-16T02:32:24.748Z,11.37
2019-01-16T02:35:12.490Z,11.13
2019-01-16T02:37:55.450Z,13.53
2019-01-16T02:40:55.372Z,11.57
2019-01-16T02:43:46.336Z,12.23
2019-01-16T02:46:37.668Z,10.63
2019-01-16T02:49:28.552Z,11.10
2019-01-16T02:52:19.381Z,10.90
2019-01-16T02:55:06.109Z,10.77
2019-01-16T02:57:56.887Z,11.37
2019-01-16T03:00:40.158Z,10.23
2019-01-16T03:03:30.139Z,9.87
2019-01-16T03:06:16.764Z,10.03
2019-01-16T03:08:57.768Z,10.37
2019-01-16T03:11:48.539Z,9.67
2019-01-16T03:14:28.488Z,10.00
2019-01-16T03:17:09.604Z,10.03
2019-01-16T03:20:06.557Z,10.43
2019-01-16T03:22:57.681Z,10.90
2019-01-16T03:25:47.180Z,10.03
2019-01-16T03:28:53.174Z,10.67
2019-01-16T03:31:33.580Z,9.57
2019-01-16T03:34:27.186Z,9.83
2019-01-16T03:37:16.685Z,10.33
2019-01-16T03:40:10.009Z,10.03
2019-01-16T03:42:51.700Z,10.10
2019-01-16T03:45:47.578Z,10.87
2019-01-16T03:48:50.583Z,10.03
2019-01-16T03:51:37.161Z,10.77
2019-01-16T03:54:23.877Z,11.17
2019-01-16T03:57:14.531Z,10.40
2019-01-16T04:00:11.581Z,10.30
2019-01-16T04:02:59.384Z,9.63
2019-01-16T04:05:47.358Z,9.93
2019-01-16T04:08:33.722Z,9.77
2019-01-16T04:11:24.546Z,9.63
2019-01-16T04:14:10.898Z,9.90
2019-01-16T04:16:58.779Z,10.20
2019-01-16T04:19:44.977Z,9.27
2019-01-16T04:22:39.120Z,10.67
2019-01-16T04:25:30.559Z,10.60
2019-01-16T04:28:17.108Z,9.77
2019-01-16T04:31:07.934Z,10.13
2019-01-16T04:33:54.070Z,9.50
2019-01-16T04:36:40.528Z,9.73
2019-01-16T04:39:46.611Z,10.87
2019-01-16T04:42:34.493Z,9.27
2019-01-16T04:45:37.536Z,9.80
2019-01-16T04:48:43.360Z,10.57
2019-01-16T04:51:40.479Z,9.93
2019-01-16T04:54:25.250Z,10.83
2019-01-16T04:57:22.392Z,10.13
2019-01-16T05:00:05.593Z,11.30
2019-01-16T05:02:47.405Z,10.60
2019-01-16T05:05:44.450Z,12.27
2019-01-16T05:08:35.103Z,12.00
2019-01-16T05:11:26.816Z,11.67
2019-01-16T05:14:06.477Z,10.63
2019-01-16T05:16:52.990Z,9.83
2019-01-16T05:19:50.367Z,9.40
2019-01-16T05:22:53.407Z,10.63
2019-01-16T05:25:36.768Z,10.83
2019-01-16T05:28:23.286Z,10.40
2019-01-16T05:31:26.335Z,10.03
2019-01-16T05:34:25.560Z,9.87
2019-01-16T05:37:13.541Z,10.47
2019-01-16T05:40:16.415Z,10.37
2019-01-16T05:43:11.574Z,10.60
2019-01-16T05:45:52.381Z,9.63
2019-01-16T05:48:38.850Z,9.97
2019-01-16T05:51:25.571Z,10.73
2019-01-16T05:54:13.746Z,10.50
2019-01-16T05:57:07.571Z,9.10
2019-01-16T06:00:01.354Z,10.80
2019-01-16T06:02:47.807Z,10.67
2019-01-16T06:05:41.408Z,9.87
2019-01-16T06:08:22.343Z,10.90
2019-01-16T06:11:08.673Z,12.47
2019-01-16T06:13:48.988Z,11.43
2019-01-16T06:16:39.928Z,10.27
2019-01-16T06:19:37.077Z,10.43
2019-01-16T06:22:40.313Z,10.60
2019-01-16T06:25:28.414Z,12.03
2019-01-16T06:28:28.315Z,10.30
2019-01-16T06:31:14.840Z,9.70
2019-01-16T06:34:11.426Z,10.70
2019-01-16T06:37:00.419Z,11.40
2019-01-16T06:39:39.950Z,11.10
2019-01-16T06:42:23.727Z,10.37
2019-01-16T06:45:11.405Z,10.87
2019-01-16T06:47:51.311Z,10.10
2019-01-16T06:50:28.307Z,12.30
2019-01-16T06:53:16.241Z,10.33
2019-01-16T06:56:10.241Z,11.07
2019-01-16T06:58:58.145Z,10.30
2019-01-16T07:02:04.334Z,11.23
2019-01-16T07:04:58.333Z,10.77
2019-01-16T07:07:50.365Z,10.03
2019-01-16T07:10:29.198Z,10.73
2019-01-16T07:13:17.134Z,10.47
2019-01-16T07:16:03.806Z,9.77
2019-01-16T07:18:47.210Z,11.47
2019-01-16T07:21:49.999Z,10.00
2019-01-16T07:24:37.990Z,10.63
2019-01-16T07:27:19.034Z,10.93
2019-01-16T07:30:09.771Z,11.73
2019-01-16T07:32:54.983Z,11.23
2019-01-16T07:35:41.555Z,10.90
2019-01-16T07:38:48.125Z,8.67
2019-01-16T07:41:48.223Z,9.27
2019-01-16T07:44:35.695Z,9.53
2019-01-16T07:47:35.636Z,10.30
2019-01-16T07:50:42.016Z,9.30
2019-01-16T07:53:33.063Z,9.77
2019-01-16T07:56:36.106Z,8.73
2019-01-16T07:59:36.201Z,8.40
2019-01-16T08:02:22.930Z,8.20
2019-01-16T08:05:03.832Z,7.77
2019-01-16T08:08:01.847Z,8.37
2019-01-16T08:10:49.596Z,9.10
2019-01-16T08:13:36.122Z,9.40
2019-01-16T08:16:23.235Z,8.03
2019-01-16T08:19:10.483Z,8.00
2019-01-16T08:21:59.526Z,8.83
2019-01-16T08:24:55.951Z,8.07
2019-01-16T08:27:45.625Z,9.03
2019-01-16T08:30:43.202Z,7.90
2019-01-16T08:33:37.016Z,8.50
2019-01-16T08:36:24.121Z,9.17
2019-01-16T08:39:20.975Z,8.00
2019-01-16T08:42:24.019Z,8.60
2019-01-16T08:45:11.832Z,9.60
2019-01-16T08:47:58.356Z,9.43
2019-01-16T08:50:44.586Z,9.30
2019-01-16T08:53:31.210Z,9.87
2019-01-16T08:56:22.257Z,8.60
2019-01-16T08:59:08.502Z,10.10
2019-01-16T09:02:05.340Z,8.97
2019-01-16T09:05:11.335Z,7.77
2019-01-16T09:07:57.873Z,8.60
2019-01-16T09:10:44.491Z,8.63
2019-01-16T09:13:34.849Z,9.13
2019-01-16T09:16:34.943Z,7.97
2019-01-16T09:19:37.987Z,8.27
2019-01-16T09:22:24.226Z,8.47
2019-01-16T09:25:12.223Z,8.00
2019-01-16T09:28:03.271Z,7.93
2019-01-16T09:30:49.515Z,8.77
2019-01-16T09:33:49.697Z,7.90
2019-01-16T09:36:40.747Z,6.83
2019-01-16T09:39:28.062Z,7.13
2019-01-16T09:42:21.580Z,7.20
2019-01-16T09:45:08.203Z,8.87
2019-01-16T09:47:54.826Z,9.03
2019-01-16T09:50:57.974Z,7.77
2019-01-16T09:53:44.206Z,7.53
2019-01-16T09:56:47.535Z,7.73
2019-01-16T09:59:34.066Z,7.67
2019-01-16T10:02:27.789Z,8.47
2019-01-16T10:05:20.495Z,8.63
2019-01-16T10:08:00.695Z,8.57
2019-01-16T10:11:00.531Z,7.57
2019-01-16T10:13:47.059Z,8.20
2019-01-16T10:16:44.293Z,7.63
2019-01-16T10:19:20.174Z,7.33
2019-01-16T10:22:12.014Z,7.63
2019-01-16T10:24:59.947Z,7.80
2019-01-16T10:27:53.756Z,7.93
2019-01-16T10:30:41.464Z,7.73
2019-01-16T10:33:27.990Z,8.40
2019-01-16T10:36:15.693Z,8.37
2019-01-16T10:39:00.222Z,7.63
2019-01-16T10:41:46.988Z,7.70
2019-01-16T10:44:24.134Z,7.03
2019-01-16T10:47:21.409Z,7.70
2019-01-16T10:50:09.116Z,8.70
2019-01-16T10:52:55.359Z,8.30
2019-01-16T10:55:45.914Z,8.50
2019-01-16T10:58:36.335Z,8.20
2019-01-16T11:01:33.814Z,7.47
2019-01-16T11:04:13.710Z,7.90
2019-01-16T11:07:00.222Z,8.10
2019-01-16T11:09:35.457Z,7.20
2019-01-16T11:12:22.146Z,6.87
2019-01-16T11:15:19.282Z,7.27
2019-01-16T11:18:10.876Z,6.10
2019-01-16T11:21:11.185Z,7.00
2019-01-16T11:24:05.791Z,7.27
2019-01-16T11:27:09.032Z,7.17
2019-01-16T11:29:59.457Z,6.97
2019-01-16T11:32:46.019Z,6.50
2019-01-16T11:35:27.512Z,6.63
2019-01-16T11:38:13.200Z,6.30
2019-01-16T11:41:07.175Z,6.63
2019-01-16T11:43:57.733Z,5.73
2019-01-16T11:46:35.030Z,6.20
2019-01-16T11:49:23.025Z,5.93
2019-01-16T11:52:19.891Z,5.50
2019-01-16T11:55:16.941Z,5.07
2019-01-16T11:58:12.910Z,5.30
2019-01-16T12:01:19.074Z,4.60
2019-01-16T12:04:08.956Z,5.30
2019-01-16T12:07:03.142Z,5.50
2019-01-16T12:10:00.679Z,4.13
2019-01-16T12:12:47.405Z,4.80
2019-01-16T12:15:47.299Z,4.60
2019-01-16T12:18:48.143Z,5.00
2019-01-16T12:21:35.891Z,3.87
2019-01-16T12:24:17.675Z,4.40
2019-01-16T12:27:05.601Z,3.83
2019-01-16T12:29:51.123Z,3.60
2019-01-16T12:32:41.613Z,5.43
2019-01-16T12:35:38.554Z,4.13
2019-01-16T12:38:26.266Z,4.10
2019-01-16T12:41:22.027Z,3.80
2019-01-16T12:44:18.822Z,3.80
2019-01-16T12:47:25.180Z,4.20
2019-01-16T12:50:05.758Z,3.10
2019-01-16T12:52:54.125Z,4.13
2019-01-16T12:55:36.297Z,3.90
2019-01-16T12:58:33.355Z,3.03
2019-01-16T13:01:27.350Z,3.30
2019-01-16T13:04:18.652Z,2.93
2019-01-16T13:07:06.592Z,3.00
2019-01-16T13:09:44.154Z,2.80
2019-01-16T13:12:35.130Z,2.80
2019-01-16T13:15:39.259Z,2.60
2019-01-16T13:18:25.488Z,2.27
2019-01-16T13:21:18.517Z,2.10
2019-01-16T13:23:57.222Z,2.30
2019-01-16T13:26:43.894Z,1.90
2019-01-16T13:29:38.084Z,2.33
2019-01-16T13:32:29.137Z,1.73
2019-01-16T13:35:15.369Z,1.63
2019-01-16T13:38:03.178Z,1.77
2019-01-16T13:40:50.684Z,3.83
2019-01-16T13:43:41.647Z,3.70
2019-01-16T13:46:28.263Z,1.73
2019-01-16T13:49:14.788Z,2.23
2019-01-16T13:52:04.596Z,2.30
2019-01-16T13:54:55.512Z,1.77
2019-01-16T13:57:42.236Z,1.47
2019-01-16T14:00:40.670Z,2.07
2019-01-16T14:03:28.765Z,2.03
2019-01-16T14:06:22.377Z,1.97
2019-01-16T14:09:16.276Z,1.70
2019-01-16T14:12:09.787Z,1.50
2019-01-16T14:14:56.509Z,2.03
2019-01-16T14:17:46.040Z,2.07
2019-01-16T14:20:34.679Z,1.60
2019-01-16T14:23:21.002Z,2.07
2019-01-16T14:26:10.357Z,1.60
2019-01-16T14:28:56.910Z,1.93
2019-01-16T14:31:50.514Z,1.80
2019-01-16T14:34:38.227Z,1.80
2019-01-16T14:37:26.320Z,1.83
2019-01-16T14:40:12.655Z,2.83
2019-01-16T14:42:58.990Z,2.10
2019-01-16T14:45:56.057Z,1.70
2019-01-16T14:48:43.790Z,2.03
2019-01-16T14:51:47.074Z,1.80
2019-01-16T14:54:40.692Z,2.13
2019-01-16T14:57:36.515Z,2.03
2019-01-16T15:00:28.481Z,2.00
2019-01-16T15:03:24.945Z,1.77
2019-01-16T15:06:16.086Z,2.57
2019-01-16T15:09:12.837Z,1.90
2019-01-16T15:12:19.424Z,2.33
2019-01-16T15:15:01.772Z,1.87
2019-01-16T15:17:55.621Z,2.50
2019-01-16T15:20:55.518Z,2.20
2019-01-16T15:23:43.234Z,2.60
2019-01-16T15:26:29.954Z,1.80
2019-01-16T15:29:12.306Z,1.60
2019-01-16T15:32:18.341Z,1.73
2019-01-16T15:35:04.874Z,1.83
2019-01-16T15:37:55.725Z,2.20
2019-01-16T15:40:46.589Z,1.60
2019-01-16T15:43:33.497Z,1.70
2019-01-16T15:46:13.907Z,1.90
2019-01-16T15:49:04.691Z,1.90
2019-01-16T15:52:01.732Z,2.30
2019-01-16T15:54:49.017Z,2.10
2019-01-16T15:57:46.294Z,1.97
2019-01-16T16:00:49.021Z,1.80
2019-01-16T16:03:42.283Z,2.33
2019-01-16T16:06:29.958Z,1.97
2019-01-16T16:09:14.098Z,1.93
2019-01-16T16:12:00.470Z,2.17
2019-01-16T16:14:57.409Z,2.50
2019-01-16T16:17:54.064Z,2.10
2019-01-16T16:20:44.921Z,2.20
2019-01-16T16:23:31.541Z,2.50
2019-01-16T16:26:31.644Z,3.17
2019-01-16T16:29:28.580Z,2.07
2019-01-16T16:32:28.871Z,2.40
2019-01-16T16:35:25.436Z,2.00
2019-01-16T16:38:13.139Z,2.20
2019-01-16T16:40:57.465Z,2.10
2019-01-16T16:43:48.353Z,2.43
2019-01-16T16:46:48.643Z,1.93
2019-01-16T16:49:48.539Z,2.10
2019-01-16T16:52:46.078Z,1.73
2019-01-16T16:55:52.070Z,2.10
2019-01-16T16:58:39.801Z,2.70
2019-01-16T17:01:39.819Z,2.07
2019-01-16T17:04:17.857Z,2.90
2019-01-16T17:07:10.966Z,3.03
2019-01-16T17:10:22.863Z,2.20
2019-01-16T17:13:00.106Z,2.57
2019-01-16T17:16:00.196Z,2.50
2019-01-16T17:18:48.923Z,2.27
2019-01-16T17:21:39.777Z,2.73
2019-01-16T17:24:39.871Z,2.63
2019-01-16T17:27:30.483Z,2.10
2019-01-16T17:30:10.138Z,3.47
2019-01-16T17:32:56.703Z,2.23
2019-01-16T17:36:02.698Z,2.43
2019-01-16T17:38:49.421Z,2.33
2019-01-16T17:41:36.301Z,2.47
2019-01-16T17:44:22.778Z,2.57
2019-01-16T17:47:28.976Z,2.70
2019-01-16T17:50:17.518Z,2.37
2019-01-16T17:53:09.190Z,2.30
2019-01-16T17:56:00.049Z,2.00
2019-01-16T17:58:47.611Z,2.13
2019-01-16T18:01:48.043Z,2.00
2019-01-16T18:04:36.175Z,2.90
2019-01-16T18:07:27.196Z,2.40
2019-01-16T18:10:13.884Z,2.13
2019-01-16T18:13:16.775Z,2.13
2019-01-16T18:16:09.983Z,2.80
2019-01-16T18:19:03.990Z,2.53
2019-01-16T18:21:50.317Z,2.40
2019-01-16T18:24:37.038Z,2.70
2019-01-16T18:27:43.229Z,2.37
2019-01-16T18:30:35.843Z,2.13
2019-01-16T18:33:27.485Z,2.40
2019-01-16T18:36:14.405Z,2.03
2019-01-16T18:39:00.940Z,2.43
2019-01-16T18:41:39.946Z,2.60
2019-01-16T18:44:31.212Z,2.37
2019-01-16T18:47:25.042Z,2.30
2019-01-16T18:50:21.989Z,2.20
2019-01-16T18:53:09.888Z,2.23
2019-01-16T18:56:10.187Z,2.43
2019-01-16T18:59:03.697Z,2.30
2019-01-16T19:01:46.096Z,2.40
2019-01-16T19:04:34.091Z,2.50
2019-01-16T19:07:34.187Z,2.73
2019-01-16T19:10:25.153Z,2.40
2019-01-16T19:13:07.907Z,2.73
2019-01-16T19:15:58.682Z,3.07
2019-01-16T19:18:52.485Z,2.70
2019-01-16T19:21:43.244Z,2.30
2019-01-16T19:24:29.674Z,2.90
2019-01-16T19:27:16.196Z,2.60
2019-01-16T19:29:57.432Z,2.40
2019-01-16T19:32:48.078Z,2.33
2019-01-16T19:35:48.178Z,2.97
2019-01-16T19:38:41.677Z,2.83
2019-01-16T19:41:44.530Z,2.40
2019-01-16T19:44:26.401Z,2.50
2019-01-16T19:47:29.574Z,2.90
2019-01-16T19:50:29.569Z,3.20
2019-01-16T19:53:16.296Z,2.80
2019-01-16T19:56:10.094Z,2.57
2019-01-16T19:59:13.529Z,2.77
2019-01-16T20:02:03.939Z,2.83
2019-01-16T20:04:54.949Z,3.13
2019-01-16T20:07:46.091Z,2.70
2019-01-16T20:10:39.057Z,2.57
2019-01-16T20:13:17.932Z,3.27
2019-01-16T20:16:07.641Z,2.50
2019-01-16T20:19:01.640Z,3.10
2019-01-16T20:21:58.593Z,4.80
2019-01-16T20:24:40.596Z,3.40
2019-01-16T20:27:27.226Z,6.80
2019-01-16T20:30:17.974Z,7.40
2019-01-16T20:33:11.975Z,4.50
2019-01-16T20:35:58.446Z,4.43
2019-01-16T20:38:46.287Z,4.10
2019-01-16T20:41:40.313Z,3.67
2019-01-16T20:44:35.928Z,3.80
2019-01-16T20:47:22.512Z,4.40
2019-01-16T20:50:28.403Z,4.20
2019-01-16T20:53:22.362Z,3.30
2019-01-16T20:56:09.023Z,3.67
2019-01-16T20:58:49.028Z,3.20
2019-01-16T21:01:51.815Z,3.23
2019-01-16T21:04:38.537Z,3.87
2019-01-16T21:07:28.071Z,4.03
2019-01-16T21:10:18.870Z,3.40
2019-01-16T21:13:05.890Z,3.73
2019-01-16T21:16:06.961Z,4.40
2019-01-16T21:18:54.876Z,3.43
2019-01-16T21:21:41.399Z,3.13
2019-01-16T21:24:32.641Z,4.00
2019-01-16T21:27:26.644Z,3.57
2019-01-16T21:30:26.537Z,3.50
2019-01-16T21:33:13.065Z,3.60
2019-01-16T21:35:59.696Z,3.47
2019-01-16T21:38:42.734Z,3.70
2019-01-16T21:41:24.159Z,3.97
2019-01-16T21:44:24.484Z,3.40
2019-01-16T21:47:15.142Z,3.93
2019-01-16T21:50:08.955Z,3.90
2019-01-16T21:52:56.848Z,4.07
2019-01-16T21:55:42.554Z,3.63
2019-01-16T21:58:28.005Z,3.67
2019-01-16T22:01:16.040Z,3.97
2019-01-16T22:04:10.039Z,4.20
2019-01-16T22:07:06.891Z,4.17
2019-01-16T22:10:00.794Z,4.43
2019-01-16T22:12:47.327Z,5.60
2019-01-16T22:15:47.018Z,4.90
2019-01-16T22:18:34.930Z,4.27
2019-01-16T22:21:19.647Z,3.97
2019-01-16T22:24:19.973Z,4.40
2019-01-16T22:27:07.874Z,5.40
2019-01-16T22:29:54.599Z,4.13
2019-01-16T22:32:39.728Z,4.43
2019-01-16T22:35:27.228Z,4.60
2019-01-16T22:38:18.311Z,4.40
2019-01-16T22:41:05.361Z,4.13
2019-01-16T22:44:08.278Z,5.17
2019-01-16T22:46:47.691Z,4.73
2019-01-16T22:49:34.263Z,5.30
2019-01-16T22:52:28.254Z,4.83
2019-01-16T22:55:06.701Z,4.77
2019-01-16T22:58:12.814Z,4.97
2019-01-16T23:01:18.117Z,4.87
2019-01-16T23:03:58.902Z,5.03
2019-01-16T23:07:04.940Z,4.53
2019-01-16T23:09:55.590Z,4.93
2019-01-16T23:12:52.346Z,4.57
2019-01-16T23:15:49.002Z,5.97
2019-01-16T23:18:46.044Z,5.07
2019-01-16T23:21:42.990Z,5.30
2019-01-16T23:24:30.702Z,5.17
2019-01-16T23:27:12.667Z,5.63
2019-01-16T23:30:09.167Z,4.90
2019-01-16T23:32:56.982Z,4.97
2019-01-16T23:35:51.710Z,5.33
2019-01-16T23:38:45.460Z,4.70
2019-01-16T23:41:32.186Z,5.20
2019-01-16T23:44:16.800Z,4.90
2019-01-16T23:47:20.618Z,5.63
2019-01-16T23:50:14.080Z,5.10
2019-01-16T23:53:14.077Z,5.43
2019-01-16T23:56:08.172Z,6.10
2019-01-16T23:58:59.026Z,5.87
